This is the latest recevied weather packets stored in our database for station/object PE1BMM-13. If no packets are shown the sender has not sent any weather packets the latest 10 day(s).
| Time | Temp. | Humidity | Pressure | Rain* | Wind** | Luminosity | Snow |
|---|---|---|---|---|---|---|---|
| 1777238279 | 7.78° C | 80% | 1026.2 hPa | 0 mm | - | - | - |
| 1777235874 | 7.78° C | 79% | 1026.2 hPa | 0 mm | - | - | - |
| 1777221434 | 13.89° C | 60% | 1025.8 hPa | 0 mm | - | - | - |
| 1777220548 | 13.89° C | 60% | 1025.9 hPa | 0 mm | - | - | - |
| 1777211859 | 13.89° C | 60% | 1026.4 hPa | 0 mm | - | - | - |
| 1777207016 | 13.33° C | 59% | 1026.8 hPa | 0 mm | - | - | - |
| 1777205249 | 13.33° C | 62% | 1026.9 hPa | 0 mm | - | - | - |
| 1777203450 | 13.33° C | 61% | 1027.2 hPa | 0 mm | - | - | - |
| 1777202850 | 12.78° C | 62% | 1027.1 hPa | 0 mm | - | - | - |
| 1777200449 | 12.78° C | 63% | 1027.2 hPa | 0 mm | - | - | - |
| 1777197726 | 11.67° C | 66% | 1027.2 hPa | 0 mm | - | - | - |
| 1777196848 | 11.67° C | 66% | 1027.2 hPa | 0 mm | - | - | - |
| 1777195042 | 11.67° C | 68% | 1027.2 hPa | 0 mm | - | - | - |
| 1777193840 | 10.56° C | 70% | 1027.2 hPa | 0 mm | - | - | - |
| 1777188675 | 10° C | 76% | 1026.9 hPa | 0 mm | - | - | - |
| 1777188532 | 10.56° C | 74% | 1026.9 hPa | 0 mm | - | - | - |
| 1777182428 | 7.22° C | 84% | 1026.5 hPa | 0 mm | - | - | - |
| 1777182404 | 7.22° C | 84% | 1026.4 hPa | 0 mm | - | - | - |
| 1777178828 | 6.67° C | 84% | 1026 hPa | 0 mm | - | - | - |
| 1777178458 | 6.67° C | 84% | 1025.9 hPa | 0 mm | - | - | - |
| 1777177028 | 6.67° C | 84% | 1025.8 hPa | 0 mm | - | - | - |
| 1777172220 | 6.67° C | 84% | 1025 hPa | 0 mm | - | - | - |
| 1777171022 | 6.67° C | 83% | 1024.8 hPa | 0 mm | - | - | - |
| 1777169820 | 7.22° C | 82% | 1024.7 hPa | 0 mm | - | - | - |
| 1777169220 | 7.22° C | 82% | 1024.7 hPa | 0 mm | - | - | - |
* Rain latest hour (hover to see other rain measurements)
** Current wind speed in m/s (hover to see current wind gust speed)